Time;durP1;ratioP1;P1;durP2;ratioP2;P2;SDS_P1;SDS_P2;PMS_P1;PMS_P2;Temp;Humidity;BMP_temperature;BMP_pressure;BME280_temperature;BME280_humidity;BME280_pressure;Samples;Min_cycle;Max_cycle;Signal;HPM_P1;HPM_P2
2024/01/03 00:00:23;;;;;;;1.53;0.70;;;13.10;73.50;;;;;;4999172;28;20576;-60
2024/01/03 00:02:49;;;;;;;0.60;0.60;;;13.30;73.50;;;;;;4998266;28;20437;-59
2024/01/03 00:05:17;;;;;;;1.70;0.53;;;13.50;72.60;;;;;;5002720;28;20460;-60
2024/01/03 00:07:43;;;;;;;0.70;0.60;;;13.20;72.30;;;;;;5001913;28;20190;-58
2024/01/03 00:10:41;;;;;;;1.13;0.90;;;13.10;73.20;;;;;;5002520;28;20429;-59
2024/01/03 00:13:31;;;;;;;0.93;0.50;;;13.20;72.40;;;;;;5006303;28;20190;-59
2024/01/03 00:16:00;;;;;;;0.83;0.70;;;13.40;72.10;;;;;;4997626;28;20457;-60
2024/01/03 00:18:51;;;;;;;1.17;0.70;;;13.70;70.60;;;;;;5005806;28;20445;-60
2024/01/03 00:21:25;;;;;;;0.50;0.50;;;13.70;70.20;;;;;;5004449;28;20441;-60
2024/01/03 00:23:55;;;;;;;0.70;0.70;;;13.80;69.10;;;;;;5003407;28;20440;-60
2024/01/03 00:26:22;;;;;;;0.50;0.50;;;13.80;68.90;;;;;;5004443;28;20440;-58
2024/01/03 00:28:48;;;;;;;0.83;0.70;;;13.80;68.80;;;;;;5006008;28;20491;-59
2024/01/03 00:31:22;;;;;;;1.77;0.70;;;13.80;68.00;;;;;;4999735;28;22331;-59
2024/01/03 00:33:48;;;;;;;0.80;0.80;;;13.70;68.30;;;;;;5005699;28;20243;-59
2024/01/03 00:36:16;;;;;;;0.70;0.63;;;13.80;68.10;;;;;;5001803;28;20484;-60
2024/01/03 00:38:42;;;;;;;0.70;0.60;;;13.80;67.80;;;;;;4998792;28;20186;-59
2024/01/03 00:41:12;;;;;;;1.40;0.67;;;13.80;67.20;;;;;;4998458;28;20468;-60
2024/01/03 00:43:41;;;;;;;0.93;0.80;;;14.10;66.90;;;;;;5001850;28;20448;-60
2024/01/03 00:46:10;;;;;;;0.73;0.60;;;14.20;65.80;;;;;;5001476;28;20839;-60
2024/01/03 00:48:36;;;;;;;0.57;0.57;;;14.30;64.80;;;;;;5002198;28;20436;-60
2024/01/03 00:51:03;;;;;;;1.13;0.60;;;14.30;64.40;;;;;;4998326;28;20483;-60
2024/01/03 00:53:29;;;;;;;1.10;0.67;;;14.30;64.20;;;;;;5003309;28;20685;-58
2024/01/03 00:55:55;;;;;;;1.43;0.70;;;14.00;63.70;;;;;;5000909;28;20471;-59
2024/01/03 00:58:20;;;;;;;0.67;0.60;;;14.10;63.80;;;;;;5002422;28;20436;-60
2024/01/03 01:00:47;;;;;;;1.30;0.70;;;14.00;63.00;;;;;;4996355;28;20229;-60
2024/01/03 01:03:12;;;;;;;1.80;1.23;;;14.10;62.70;;;;;;4999996;28;20205;-60
2024/01/03 01:05:39;;;;;;;1.67;1.10;;;13.80;61.80;;;;;;4999288;28;20522;-61
2024/01/03 01:08:05;;;;;;;2.50;0.90;;;13.70;62.00;;;;;;5000191;28;20273;-60
2024/01/03 01:10:30;;;;;;;1.80;0.90;;;13.50;61.40;;;;;;4993442;28;20488;-58
2024/01/03 01:12:56;;;;;;;1.13;0.90;;;13.50;61.60;;;;;;5000293;28;20449;-59
2024/01/03 01:15:22;;;;;;;1.10;1.00;;;13.40;61.90;;;;;;5000194;28;20225;-60
2024/01/03 01:17:47;;;;;;;1.53;0.90;;;13.40;62.10;;;;;;5004155;28;20186;-60
2024/01/03 01:20:13;;;;;;;2.43;1.00;;;13.60;62.10;;;;;;4997982;28;20293;-59
2024/01/03 01:22:39;;;;;;;2.33;0.80;;;13.70;61.40;;;;;;5000733;28;20703;-58
2024/01/03 01:25:05;;;;;;;3.43;0.97;;;13.60;61.50;;;;;;4997767;28;20849;-59
2024/01/03 01:27:30;;;;;;;1.33;0.80;;;13.80;61.70;;;;;;5003147;28;20269;-59
2024/01/03 01:29:56;;;;;;;2.83;1.07;;;13.60;61.70;;;;;;5002020;28;20527;-59
2024/01/03 01:32:21;;;;;;;1.47;1.00;;;13.70;61.20;;;;;;5005754;28;20229;-58
2024/01/03 01:34:47;;;;;;;0.70;0.70;;;13.60;61.50;;;;;;5005570;28;20201;-59
2024/01/03 01:37:13;;;;;;;1.10;0.80;;;13.60;61.90;;;;;;5002992;28;20216;-60
2024/01/03 01:39:38;;;;;;;1.10;0.90;;;13.50;61.90;;;;;;5006205;28;20799;-60
2024/01/03 01:42:04;;;;;;;0.80;0.80;;;13.30;63.10;;;;;;5005752;28;20672;-58
2024/01/03 01:44:30;;;;;;;2.00;0.90;;;13.30;63.00;;;;;;5003417;28;20681;-59
2024/01/03 01:46:56;;;;;;;2.60;1.10;;;13.10;63.60;;;;;;4997884;28;20248;-59
2024/01/03 01:49:22;;;;;;;1.30;0.83;;;13.20;63.70;;;;;;5002767;28;20198;-60
2024/01/03 01:51:48;;;;;;;1.20;1.00;;;13.50;63.60;;;;;;4997054;28;20512;-60
2024/01/03 01:54:13;;;;;;;2.23;0.80;;;13.50;63.10;;;;;;5003315;28;20483;-59
2024/01/03 01:56:40;;;;;;;0.70;0.70;;;13.50;63.20;;;;;;5004791;28;20230;-58
2024/01/03 01:59:09;;;;;;;4.10;0.87;;;13.60;63.30;;;;;;5005605;28;20264;-60
2024/01/03 02:01:35;;;;;;;1.87;1.00;;;13.60;63.90;;;;;;5007542;28;20444;-60
2024/01/03 02:04:04;;;;;;;1.10;1.00;;;13.50;64.30;;;;;;5001301;28;20535;-59
2024/01/03 02:06:31;;;;;;;3.57;0.80;;;13.30;65.10;;;;;;5006793;28;20976;-60
2024/01/03 02:08:56;;;;;;;3.23;1.13;;;13.30;65.60;;;;;;5006081;28;20948;-60
2024/01/03 02:11:22;;;;;;;3.30;1.40;;;13.40;65.70;;;;;;5002098;28;20491;-59
2024/01/03 02:13:47;;;;;;;1.63;1.10;;;13.30;65.90;;;;;;5008350;28;20190;-58
2024/01/03 02:16:13;;;;;;;3.90;1.00;;;13.50;65.90;;;;;;5006186;28;20271;-60
2024/01/03 02:18:40;;;;;;;0.67;0.67;;;13.40;65.90;;;;;;5001845;28;20193;-58
2024/01/03 02:21:16;;;;;;;1.70;0.70;;;13.40;66.00;;;;;;5006657;28;20182;-59
2024/01/03 02:23:43;;;;;;;1.20;0.90;;;13.30;64.70;;;;;;5004503;28;20925;-59
2024/01/03 02:26:08;;;;;;;1.50;0.90;;;13.40;64.90;;;;;;4997521;28;20596;-57
2024/01/03 02:28:34;;;;;;;1.50;0.80;;;13.10;64.50;;;;;;5002580;28;20524;-59
2024/01/03 02:31:00;;;;;;;1.13;0.70;;;13.10;64.30;;;;;;5001989;28;20249;-59
2024/01/03 02:33:26;;;;;;;1.67;0.70;;;13.00;64.40;;;;;;5003454;28;20507;-59
2024/01/03 02:35:52;;;;;;;3.37;1.10;;;12.90;64.50;;;;;;5008359;28;20217;-59
2024/01/03 02:38:17;;;;;;;1.00;0.60;;;13.00;64.80;;;;;;5006026;28;20556;-58
2024/01/03 02:40:44;;;;;;;1.53;0.87;;;12.80;64.40;;;;;;5007246;28;20572;-59
2024/01/03 02:43:10;;;;;;;1.60;0.60;;;12.80;64.50;;;;;;5004881;28;20194;-59
2024/01/03 02:45:36;;;;;;;1.80;0.60;;;12.80;64.10;;;;;;4997430;28;20456;-58
2024/01/03 02:48:02;;;;;;;0.50;0.50;;;12.70;64.00;;;;;;5005963;28;20467;-60
2024/01/03 02:50:28;;;;;;;0.60;0.60;;;12.80;64.10;;;;;;4999839;28;20520;-59
2024/01/03 02:52:53;;;;;;;0.60;0.60;;;12.80;64.00;;;;;;5004072;28;20269;-59
2024/01/03 02:55:19;;;;;;;0.60;0.60;;;12.90;63.90;;;;;;5005683;28;20762;-60
2024/01/03 02:57:44;;;;;;;0.60;0.60;;;12.70;64.80;;;;;;5002242;28;20573;-60
2024/01/03 03:00:11;;;;;;;1.43;0.70;;;12.70;66.20;;;;;;5008198;28;20186;-58
2024/01/03 03:02:36;;;;;;;0.67;0.67;;;12.80;67.80;;;;;;5008604;28;20190;-59
2024/01/03 03:05:02;;;;;;;1.20;0.77;;;13.10;67.90;;;;;;5002050;28;20452;-58
2024/01/03 03:07:27;;;;;;;1.43;0.70;;;13.00;66.50;;;;;;5007184;28;20190;-58
2024/01/03 03:09:53;;;;;;;0.57;0.57;;;12.70;67.20;;;;;;5006361;28;20570;-59
2024/01/03 03:12:19;;;;;;;0.90;0.90;;;12.70;68.50;;;;;;4997369;28;20711;-59
2024/01/03 03:14:44;;;;;;;0.50;0.50;;;12.90;68.50;;;;;;5002252;28;20677;-59
2024/01/03 03:17:10;;;;;;;1.70;0.50;;;12.80;68.60;;;;;;5002498;28;20214;-59
2024/01/03 03:19:35;;;;;;;2.70;0.80;;;13.00;68.50;;;;;;5003309;28;20249;-60
2024/01/03 03:22:01;;;;;;;0.50;0.50;;;12.90;68.40;;;;;;5003319;28;20189;-59
2024/01/03 03:24:27;;;;;;;1.03;0.70;;;12.90;68.80;;;;;;5002871;28;20187;-59
2024/01/03 03:26:53;;;;;;;1.23;0.70;;;12.90;69.10;;;;;;4999231;28;20198;-58
2024/01/03 03:29:19;;;;;;;1.20;0.70;;;13.10;69.00;;;;;;5002379;28;20344;-59
2024/01/03 03:31:44;;;;;;;0.63;0.50;;;13.30;68.70;;;;;;5004753;28;20567;-60
2024/01/03 03:34:10;;;;;;;2.20;0.70;;;13.50;68.30;;;;;;5007516;28;20186;-60
2024/01/03 03:36:35;;;;;;;1.03;0.63;;;13.50;68.30;;;;;;5007596;28;20205;-59
2024/01/03 03:39:01;;;;;;;0.70;0.70;;;13.50;68.00;;;;;;5008400;28;20182;-59
2024/01/03 03:41:26;;;;;;;0.70;0.70;;;13.40;68.50;;;;;;4999793;28;20690;-59
2024/01/03 03:43:52;;;;;;;0.90;0.57;;;13.40;68.70;;;;;;5003429;28;20178;-59
2024/01/03 03:46:18;;;;;;;0.70;0.70;;;13.50;68.60;;;;;;5001209;28;20255;-59
2024/01/03 03:48:44;;;;;;;0.50;0.50;;;13.50;68.30;;;;;;5005365;28;20935;-59
2024/01/03 03:51:10;;;;;;;0.70;0.60;;;13.30;68.70;;;;;;5000218;28;20894;-59
2024/01/03 03:53:36;;;;;;;2.43;0.93;;;13.40;68.80;;;;;;4999629;28;20531;-59
2024/01/03 03:56:01;;;;;;;0.70;0.60;;;13.40;68.40;;;;;;4997755;28;20475;-60
2024/01/03 03:58:27;;;;;;;0.80;0.80;;;13.30;68.40;;;;;;5008007;28;20196;-58
2024/01/03 04:00:52;;;;;;;0.80;0.80;;;13.30;68.60;;;;;;5000221;28;20673;-59
2024/01/03 04:03:18;;;;;;;1.43;0.70;;;13.40;68.40;;;;;;5000540;28;20717;-60
2024/01/03 04:05:44;;;;;;;2.10;0.80;;;12.90;68.60;;;;;;5003941;28;20210;-59
2024/01/03 04:08:09;;;;;;;0.87;0.77;;;13.00;68.80;;;;;;5004653;28;20189;-59
2024/01/03 04:10:35;;;;;;;3.70;0.80;;;12.80;68.70;;;;;;5004233;28;20590;-58
2024/01/03 04:13:01;;;;;;;1.83;0.70;;;12.70;69.00;;;;;;5006034;28;20661;-58
2024/01/03 04:15:26;;;;;;;0.70;0.70;;;12.90;69.50;;;;;;5002796;28;22416;-60
2024/01/03 04:17:52;;;;;;;1.10;0.97;;;12.80;68.30;;;;;;5003078;28;20559;-59
2024/01/03 04:20:18;;;;;;;3.00;0.73;;;12.80;68.10;;;;;;4994358;28;20190;-60
2024/01/03 04:22:45;;;;;;;2.23;1.80;;;12.70;67.10;;;;;;5007214;28;20174;-59
2024/01/03 04:25:14;;;;;;;3.13;0.70;;;12.70;66.50;;;;;;4999208;28;20277;-60
2024/01/03 04:27:39;;;;;;;1.10;0.80;;;12.90;66.20;;;;;;5001860;28;20433;-59
2024/01/03 04:30:05;;;;;;;2.40;0.90;;;13.10;65.70;;;;;;5002011;28;20444;-60
2024/01/03 04:32:31;;;;;;;1.90;0.97;;;13.30;64.80;;;;;;5003971;28;20288;-60
2024/01/03 04:34:57;;;;;;;4.47;1.03;;;13.50;64.20;;;;;;4997584;28;20447;-58
2024/01/03 04:37:22;;;;;;;1.50;1.40;;;13.60;63.00;;;;;;5006045;28;20512;-60
2024/01/03 04:39:48;;;;;;;1.30;0.83;;;13.60;62.80;;;;;;5003536;28;20186;-60
2024/01/03 04:42:14;;;;;;;1.10;0.73;;;13.50;62.80;;;;;;5003808;28;20240;-59
2024/01/03 04:44:42;;;;;;;1.50;0.93;;;13.40;62.40;;;;;;4996249;28;20190;-57
2024/01/03 04:47:08;;;;;;;2.70;1.00;;;13.50;62.20;;;;;;4999759;28;20209;-59
2024/01/03 04:49:34;;;;;;;1.33;1.10;;;13.60;62.00;;;;;;5001376;28;20532;-59
2024/01/03 04:52:00;;;;;;;1.20;0.90;;;13.70;61.50;;;;;;5001323;28;20708;-59
2024/01/03 04:54:25;;;;;;;2.00;1.00;;;13.50;61.70;;;;;;5004178;28;20521;-59
2024/01/03 04:56:51;;;;;;;1.67;0.80;;;13.20;61.90;;;;;;5002095;28;20302;-60
2024/01/03 04:59:17;;;;;;;4.20;0.90;;;13.30;61.70;;;;;;5003586;28;20182;-59
2024/01/03 05:01:42;;;;;;;1.23;0.70;;;13.50;60.90;;;;;;5004028;28;20190;-60
2024/01/03 05:04:08;;;;;;;1.37;1.00;;;13.20;60.40;;;;;;5001659;28;20204;-58
2024/01/03 05:06:35;;;;;;;3.23;0.90;;;13.30;60.80;;;;;;5002674;28;20214;-59
2024/01/03 05:09:01;;;;;;;2.50;1.20;;;13.20;60.20;;;;;;5001735;28;20448;-59
2024/01/03 05:11:27;;;;;;;2.40;1.20;;;13.40;60.30;;;;;;4998806;28;20478;-59
2024/01/03 05:13:53;;;;;;;2.10;0.90;;;13.50;59.90;;;;;;5002522;28;20843;-59
2024/01/03 05:16:19;;;;;;;1.63;1.00;;;13.60;59.40;;;;;;4998267;28;20463;-60
2024/01/03 05:18:44;;;;;;;1.27;1.03;;;13.70;59.00;;;;;;4997452;28;20197;-59
2024/01/03 05:21:10;;;;;;;1.10;1.00;;;13.80;58.70;;;;;;5002298;28;20437;-60
2024/01/03 05:23:36;;;;;;;3.00;1.40;;;13.80;58.60;;;;;;4999716;28;20276;-59
2024/01/03 05:26:02;;;;;;;1.87;0.80;;;14.00;58.30;;;;;;5002450;28;20537;-59
2024/01/03 05:28:28;;;;;;;2.60;0.90;;;14.00;58.10;;;;;;5001547;28;20433;-59
2024/01/03 05:30:53;;;;;;;2.50;0.80;;;14.10;58.10;;;;;;5009518;28;20220;-59
2024/01/03 05:33:19;;;;;;;2.23;0.90;;;14.10;58.10;;;;;;5006765;28;20707;-60
2024/01/03 05:35:44;;;;;;;1.80;0.83;;;14.20;58.00;;;;;;4998544;28;20308;-60
2024/01/03 05:38:10;;;;;;;2.70;0.97;;;14.10;58.00;;;;;;5003304;28;20201;-60
2024/01/03 05:40:35;;;;;;;5.23;1.70;;;13.90;58.00;;;;;;5007676;28;20189;-59
2024/01/03 05:43:02;;;;;;;2.97;0.70;;;13.90;58.30;;;;;;5011090;28;20197;-60
2024/01/03 05:45:28;;;;;;;0.77;0.77;;;14.20;58.40;;;;;;5006168;28;20912;-60
2024/01/03 05:47:53;;;;;;;2.00;0.90;;;14.20;58.00;;;;;;5010963;28;20428;-60
2024/01/03 05:50:19;;;;;;;1.13;0.90;;;14.30;57.80;;;;;;5006816;28;20193;-60
2024/01/03 05:52:45;;;;;;;1.23;0.87;;;14.30;57.80;;;;;;5009510;28;20229;-59
2024/01/03 05:55:10;;;;;;;2.47;1.13;;;14.30;57.60;;;;;;5009795;28;20192;-60
2024/01/03 05:57:36;;;;;;;2.93;1.20;;;14.20;57.40;;;;;;5009692;28;20182;-60
2024/01/03 06:00:04;;;;;;;3.50;0.97;;;14.30;57.30;;;;;;5010938;28;20209;-60
2024/01/03 06:02:31;;;;;;;1.03;0.70;;;14.40;57.10;;;;;;5006097;28;20189;-61
2024/01/03 06:04:56;;;;;;;0.80;0.80;;;14.40;56.80;;;;;;5007791;28;20453;-59
2024/01/03 06:07:22;;;;;;;4.40;1.63;;;14.40;56.50;;;;;;5010380;28;20182;-60
2024/01/03 06:09:48;;;;;;;2.17;1.20;;;14.30;56.70;;;;;;5009650;28;20197;-60
2024/01/03 06:12:13;;;;;;;1.97;0.80;;;14.30;56.70;;;;;;5008417;28;20222;-60
2024/01/03 06:14:40;;;;;;;2.43;1.10;;;14.20;56.80;;;;;;5011050;28;20260;-59
2024/01/03 06:17:05;;;;;;;2.50;1.53;;;14.20;57.20;;;;;;5007535;28;21133;-61
2024/01/03 06:19:31;;;;;;;4.43;1.23;;;14.20;57.30;;;;;;5011220;28;20539;-61
2024/01/03 06:21:56;;;;;;;3.13;1.03;;;14.20;56.90;;;;;;5008478;28;20551;-59
2024/01/03 06:24:22;;;;;;;2.83;1.00;;;14.10;57.90;;;;;;5011021;28;20226;-60
2024/01/03 06:26:48;;;;;;;2.00;0.80;;;14.00;57.50;;;;;;5009841;28;20241;-60
2024/01/03 06:29:15;;;;;;;5.63;1.30;;;14.10;58.00;;;;;;5009699;28;20189;-59
2024/01/03 06:31:41;;;;;;;2.00;0.90;;;14.10;57.80;;;;;;5007015;28;20593;-60
2024/01/03 06:34:06;;;;;;;0.80;0.80;;;13.90;57.50;;;;;;5006141;28;20456;-60
2024/01/03 06:36:32;;;;;;;3.30;1.17;;;14.00;57.90;;;;;;5005507;28;20481;-60
2024/01/03 06:38:57;;;;;;;3.13;0.97;;;14.10;58.10;;;;;;5009830;28;20272;-60
2024/01/03 06:41:23;;;;;;;4.80;1.20;;;14.20;57.80;;;;;;5008798;28;20841;-60
2024/01/03 06:43:48;;;;;;;3.40;1.27;;;14.40;57.70;;;;;;5006625;28;20646;-60
2024/01/03 06:46:14;;;;;;;1.87;1.00;;;14.40;57.70;;;;;;5003677;28;20608;-59
2024/01/03 06:48:40;;;;;;;3.53;1.10;;;14.40;57.70;;;;;;5004331;28;20190;-60
2024/01/03 06:51:05;;;;;;;4.10;1.00;;;14.50;57.60;;;;;;5007144;28;20220;-59
2024/01/03 06:53:31;;;;;;;3.57;0.90;;;14.60;57.40;;;;;;5002467;28;20189;-58
2024/01/03 06:55:57;;;;;;;4.63;1.50;;;14.70;57.30;;;;;;5007645;28;20212;-60
2024/01/03 06:58:23;;;;;;;4.37;1.40;;;14.60;57.30;;;;;;5006828;28;20181;-60
2024/01/03 07:00:48;;;;;;;4.90;1.33;;;14.40;58.30;;;;;;5007299;28;20190;-58
2024/01/03 07:03:15;;;;;;;4.80;1.53;;;14.30;58.50;;;;;;5005224;28;20471;-59
2024/01/03 07:05:41;;;;;;;2.60;1.33;;;14.20;58.50;;;;;;5000118;28;20293;-60
2024/01/03 07:08:07;;;;;;;2.90;1.10;;;14.10;59.00;;;;;;5006064;28;20985;-60
2024/01/03 07:10:33;;;;;;;1.73;1.17;;;14.00;59.40;;;;;;5004219;28;20437;-59
2024/01/03 07:12:59;;;;;;;1.93;1.60;;;14.00;59.90;;;;;;5004046;28;20548;-60
2024/01/03 07:15:28;;;;;;;4.30;1.80;;;14.10;59.50;;;;;;5007485;28;20929;-60
2024/01/03 07:17:55;;;;;;;3.33;2.00;;;13.90;59.70;;;;;;5007198;28;20626;-60
2024/01/03 07:20:22;;;;;;;4.50;2.10;;;14.00;59.80;;;;;;5007044;28;20432;-60
2024/01/03 07:22:48;;;;;;;2.83;1.60;;;13.90;60.00;;;;;;5003933;28;20527;-59
2024/01/03 07:25:14;;;;;;;4.90;1.50;;;13.90;60.10;;;;;;5006528;28;20455;-58
2024/01/03 07:27:39;;;;;;;1.90;1.70;;;14.10;59.90;;;;;;5004969;28;20472;-59
2024/01/03 07:30:06;;;;;;;5.50;2.33;;;14.10;59.90;;;;;;5000069;28;20186;-59
2024/01/03 07:32:31;;;;;;;1.90;1.40;;;14.20;59.80;;;;;;5004163;28;20214;-60
2024/01/03 07:34:57;;;;;;;1.83;1.17;;;14.20;59.70;;;;;;5004079;28;20448;-60
2024/01/03 07:37:22;;;;;;;3.00;1.37;;;14.10;60.00;;;;;;5009766;28;20186;-60
2024/01/03 07:39:48;;;;;;;1.70;1.00;;;14.20;60.00;;;;;;5006054;28;20190;-59
2024/01/03 07:42:13;;;;;;;2.90;0.70;;;14.10;60.00;;;;;;5005330;28;20240;-60
2024/01/03 07:44:42;;;;;;;1.97;1.10;;;14.20;60.10;;;;;;5000396;28;20216;-60
2024/01/03 07:47:08;;;;;;;1.20;1.10;;;14.50;59.40;;;;;;4998659;28;20207;-60
2024/01/03 07:49:35;;;;;;;3.40;1.10;;;14.80;58.60;;;;;;5001623;28;20515;-60
2024/01/03 07:52:01;;;;;;;1.33;1.03;;;14.80;58.30;;;;;;5002502;28;20476;-59
2024/01/03 07:54:26;;;;;;;3.23;1.13;;;14.50;58.70;;;;;;5004306;28;20875;-60
2024/01/03 07:56:52;;;;;;;1.77;1.30;;;14.50;58.80;;;;;;5005728;28;20295;-60
2024/01/03 07:59:17;;;;;;;2.00;1.17;;;14.60;58.90;;;;;;5001976;28;20190;-60
2024/01/03 08:01:43;;;;;;;5.90;1.17;;;14.30;58.70;;;;;;4992340;28;20282;-59
2024/01/03 08:04:08;;;;;;;1.70;1.00;;;14.30;59.40;;;;;;5008113;28;20201;-60
2024/01/03 08:06:34;;;;;;;2.00;1.10;;;14.20;59.40;;;;;;5004442;28;20213;-58
2024/01/03 08:08:59;;;;;;;1.97;0.93;;;14.40;59.50;;;;;;5009141;28;20247;-60
2024/01/03 08:11:26;;;;;;;1.73;1.20;;;14.30;59.50;;;;;;5004986;28;20206;-60
2024/01/03 08:13:51;;;;;;;1.97;1.10;;;14.20;59.60;;;;;;5000698;28;20244;-60
2024/01/03 08:16:17;;;;;;;4.37;1.07;;;14.20;59.70;;;;;;4997162;28;21070;-60
2024/01/03 08:18:44;;;;;;;2.80;1.20;;;14.30;60.30;;;;;;4998500;28;20577;-59
2024/01/03 08:21:10;;;;;;;2.67;1.00;;;14.40;59.80;;;;;;4999504;28;20193;-60
2024/01/03 08:23:36;;;;;;;2.60;1.20;;;14.50;59.60;;;;;;4999989;28;20441;-59
2024/01/03 08:26:11;;;;;;;1.47;1.13;;;14.50;59.60;;;;;;4998456;28;20491;-58
2024/01/03 08:28:40;;;;;;;3.03;0.90;;;14.60;59.50;;;;;;4997758;28;20708;-59
2024/01/03 08:31:08;;;;;;;1.90;1.00;;;14.50;59.80;;;;;;5000444;28;20554;-60
2024/01/03 08:33:37;;;;;;;2.30;0.80;;;14.40;60.20;;;;;;5000773;28;20446;-60
2024/01/03 08:36:03;;;;;;;7.60;1.30;;;14.60;59.60;;;;;;4999097;28;20539;-61
2024/01/03 08:38:28;;;;;;;1.93;1.20;;;14.50;59.90;;;;;;4998992;28;20442;-59
2024/01/03 08:40:54;;;;;;;3.40;1.80;;;14.40;59.50;;;;;;4995456;28;20613;-61
2024/01/03 08:43:20;;;;;;;2.50;1.10;;;14.20;59.80;;;;;;4999558;28;20193;-62
2024/01/03 08:45:45;;;;;;;2.20;1.00;;;14.30;60.20;;;;;;5006081;28;20209;-58
2024/01/03 08:48:11;;;;;;;2.40;1.10;;;13.80;60.10;;;;;;5003014;28;20683;-59
2024/01/03 08:50:36;;;;;;;1.93;1.30;;;13.90;61.20;;;;;;5001091;28;20737;-61
2024/01/03 08:53:02;;;;;;;3.47;0.93;;;13.60;61.10;;;;;;5008461;28;20193;-60
2024/01/03 08:55:27;;;;;;;2.70;1.10;;;13.50;62.00;;;;;;5004032;28;20285;-60
2024/01/03 08:57:56;;;;;;;3.47;1.13;;;13.40;62.10;;;;;;4998749;28;20531;-59
2024/01/03 09:00:23;;;;;;;2.53;0.87;;;13.30;62.30;;;;;;4998096;28;20210;-60
2024/01/03 09:02:48;;;;;;;2.17;0.93;;;13.40;63.10;;;;;;5001996;28;20456;-58
2024/01/03 09:05:14;;;;;;;2.30;0.90;;;13.30;63.30;;;;;;4999961;28;20456;-59
2024/01/03 09:07:42;;;;;;;3.53;1.17;;;13.50;63.30;;;;;;5000982;28;20193;-59
2024/01/03 09:10:08;;;;;;;4.73;0.90;;;13.60;62.50;;;;;;5000742;28;20243;-59
2024/01/03 09:12:33;;;;;;;2.77;0.87;;;13.30;62.10;;;;;;5004504;28;20488;-59
2024/01/03 09:14:59;;;;;;;1.23;0.97;;;13.30;63.00;;;;;;5007136;28;20437;-59
2024/01/03 09:17:24;;;;;;;2.00;1.00;;;13.30;63.20;;;;;;5001576;28;20201;-60
2024/01/03 09:19:50;;;;;;;2.33;1.10;;;13.10;62.90;;;;;;5004178;28;20561;-60
2024/01/03 09:22:16;;;;;;;4.40;1.00;;;13.00;63.80;;;;;;5001616;28;20568;-59
2024/01/03 09:24:42;;;;;;;1.33;0.80;;;13.20;64.40;;;;;;5003354;28;20196;-59
2024/01/03 09:27:07;;;;;;;1.93;0.80;;;13.60;63.30;;;;;;5002105;28;20468;-60
2024/01/03 09:29:33;;;;;;;2.43;0.73;;;13.70;62.90;;;;;;5002868;28;20178;-60
2024/01/03 09:31:58;;;;;;;1.80;0.90;;;13.60;62.10;;;;;;5000804;28;20214;-60
2024/01/03 09:34:24;;;;;;;1.00;0.80;;;13.40;62.20;;;;;;4999655;28;21631;-59
2024/01/03 09:36:52;;;;;;;2.80;0.77;;;13.50;62.30;;;;;;5007082;28;20268;-60
2024/01/03 09:39:18;;;;;;;4.10;1.10;;;13.40;62.00;;;;;;5000845;28;20200;-57
2024/01/03 09:41:46;;;;;;;2.90;1.00;;;13.50;62.30;;;;;;4995945;28;20448;-59
2024/01/03 09:44:12;;;;;;;1.20;1.00;;;13.50;61.90;;;;;;4998295;28;21882;-58
2024/01/03 09:46:37;;;;;;;1.30;0.73;;;13.50;62.40;;;;;;4996309;28;20461;-59
2024/01/03 09:49:03;;;;;;;2.33;0.93;;;13.50;62.90;;;;;;5002494;28;20443;-59
2024/01/03 09:51:30;;;;;;;5.23;1.10;;;13.50;62.40;;;;;;4997586;28;20215;-59
2024/01/03 09:53:56;;;;;;;2.67;0.93;;;13.40;62.60;;;;;;4996203;28;20453;-59
2024/01/03 09:56:22;;;;;;;3.13;1.53;;;13.60;62.60;;;;;;4995468;28;20964;-59
2024/01/03 09:58:48;;;;;;;1.97;0.90;;;13.50;62.10;;;;;;5000247;28;20527;-59
2024/01/03 10:01:13;;;;;;;2.20;0.70;;;13.60;62.20;;;;;;4998666;28;20193;-58
2024/01/03 10:03:39;;;;;;;1.50;0.70;;;13.50;62.40;;;;;;4998179;28;20256;-60
2024/01/03 10:06:15;;;;;;;2.60;1.00;;;13.30;62.80;;;;;;5000739;28;20214;-58
2024/01/03 10:08:41;;;;;;;2.97;1.17;;;13.40;63.40;;;;;;4998559;28;20186;-59
2024/01/03 10:11:20;;;;;;;0.70;0.70;;;13.20;63.80;;;;;;5004670;28;20476;-58
2024/01/03 10:13:48;;;;;;;1.30;0.93;;;13.30;63.60;;;;;;5002219;28;20847;-56
2024/01/03 10:16:24;;;;;;;1.33;0.70;;;13.30;63.30;;;;;;4998578;28;21349;-60
2024/01/03 10:19:19;;;;;;;1.47;1.00;;;13.20;63.50;;;;;;5006553;28;20548;-60
2024/01/03 10:21:54;;;;;;;0.80;0.80;;;13.30;64.10;;;;;;5012882;23;20467;-61
2024/01/03 10:24:24;;;;;;;0.93;0.80;;;13.40;64.00;;;;;;4967128;28;20465;-62
2024/01/03 10:26:50;;;;;;;2.17;1.13;;;13.60;64.00;;;;;;4965739;28;20466;-62
2024/01/03 10:29:18;;;;;;;4.53;1.10;;;13.50;63.20;;;;;;4965890;28;20477;-61
2024/01/03 10:31:45;;;;;;;2.10;0.70;;;13.30;64.00;;;;;;4967197;28;20489;-62
2024/01/03 10:34:19;;;;;;;1.00;0.87;;;13.30;64.70;;;;;;4965916;28;20450;-62
2024/01/03 10:36:46;;;;;;;2.43;0.90;;;13.30;63.90;;;;;;4964521;28;20909;-62
2024/01/03 10:39:15;;;;;;;2.60;0.90;;;13.40;66.30;;;;;;4964104;28;20438;-62
2024/01/03 10:41:45;;;;;;;2.57;1.20;;;13.50;66.00;;;;;;4963226;28;20443;-63
2024/01/03 10:44:17;;;;;;;3.60;0.90;;;13.60;65.80;;;;;;4963770;28;20845;-63
2024/01/03 10:46:44;;;;;;;1.60;1.20;;;13.70;64.70;;;;;;4956629;28;20459;-63
2024/01/03 10:49:10;;;;;;;1.97;1.10;;;13.40;64.00;;;;;;4962088;28;20455;-63
2024/01/03 10:51:41;;;;;;;3.80;1.10;;;13.60;65.00;;;;;;4959203;28;20492;-63
2024/01/03 10:54:14;;;;;;;1.87;0.90;;;13.80;64.10;;;;;;4962333;28;20445;-63
2024/01/03 10:56:47;;;;;;;3.97;1.00;;;13.80;63.70;;;;;;4968045;28;20469;-64
2024/01/03 10:59:13;;;;;;;3.40;0.90;;;13.70;62.90;;;;;;4964000;28;20450;-63
2024/01/03 11:01:53;;;;;;;1.10;1.00;;;13.80;63.40;;;;;;4962214;28;20452;-63
2024/01/03 11:04:20;;;;;;;2.93;1.20;;;13.60;63.30;;;;;;4963916;28;20830;-63
2024/01/03 11:07:09;;;;;;;1.43;0.90;;;13.90;63.00;;;;;;4963352;28;20466;-64
2024/01/03 11:09:35;;;;;;;3.57;1.00;;;13.60;62.60;;;;;;4964539;28;20454;-63
2024/01/03 11:12:15;;;;;;;1.33;1.10;;;13.80;62.90;;;;;;4965963;28;20482;-63
2024/01/03 11:14:41;;;;;;;1.73;0.83;;;13.80;62.60;;;;;;4967675;28;20430;-64
2024/01/03 11:17:09;;;;;;;1.27;1.03;;;13.70;62.00;;;;;;4967464;28;20445;-63
2024/01/03 11:19:35;;;;;;;1.03;0.70;;;13.70;62.30;;;;;;4978587;28;20480;-63
2024/01/03 11:22:05;;;;;;;3.90;0.73;;;13.70;62.20;;;;;;4962473;28;20541;-63
2024/01/03 11:24:30;;;;;;;3.33;0.80;;;13.60;61.60;;;;;;4962151;28;20671;-63
2024/01/03 11:26:56;;;;;;;1.00;0.90;;;13.60;61.70;;;;;;4964313;28;20474;-63
2024/01/03 11:29:41;;;;;;;3.80;1.17;;;13.80;62.20;;;;;;4968046;28;20195;-63
2024/01/03 11:32:08;;;;;;;1.30;0.80;;;13.80;61.60;;;;;;4964997;28;20246;-63
2024/01/03 11:34:40;;;;;;;1.67;0.60;;;14.00;62.80;;;;;;4962212;28;20457;-63
2024/01/03 11:37:11;;;;;;;2.73;1.00;;;14.30;61.10;;;;;;4959455;28;20641;-63
2024/01/03 11:39:42;;;;;;;0.70;0.70;;;14.30;60.90;;;;;;4962936;28;20882;-63
2024/01/03 11:42:08;;;;;;;1.60;0.67;;;14.20;60.60;;;;;;4961738;28;20450;-64
2024/01/03 11:44:34;;;;;;;1.47;0.67;;;14.10;61.20;;;;;;4968377;28;20501;-63
2024/01/03 11:47:03;;;;;;;1.13;1.03;;;14.20;61.10;;;;;;4965891;28;20554;-63
2024/01/03 11:49:29;;;;;;;1.83;0.73;;;14.30;60.40;;;;;;4962713;28;20263;-64
2024/01/03 11:51:59;;;;;;;2.07;1.00;;;14.30;59.80;;;;;;4969546;28;20511;-64
2024/01/03 11:54:25;;;;;;;1.10;0.77;;;14.10;59.50;;;;;;4963458;28;20199;-63
2024/01/03 11:56:51;;;;;;;2.10;0.93;;;14.30;59.80;;;;;;4965999;28;20465;-64
2024/01/03 11:59:23;;;;;;;2.83;1.00;;;14.40;59.30;;;;;;4968297;28;20671;-63
2024/01/03 12:01:58;;;;;;;2.20;0.97;;;14.30;59.10;;;;;;4966969;28;20462;-63
2024/01/03 12:04:24;;;;;;;2.53;0.83;;;14.30;58.80;;;;;;4969525;28;20438;-64
2024/01/03 12:06:55;;;;;;;1.00;0.90;;;14.40;59.00;;;;;;4965589;28;21085;-63
2024/01/03 12:09:21;;;;;;;2.70;0.80;;;14.60;58.60;;;;;;4958833;28;20443;-63
2024/01/03 12:11:47;;;;;;;1.83;0.80;;;14.50;58.10;;;;;;4964652;28;20822;-64
2024/01/03 12:14:16;;;;;;;5.30;1.10;;;14.50;58.00;;;;;;4965903;28;20448;-63
2024/01/03 12:16:50;;;;;;;2.93;1.10;;;14.20;57.80;;;;;;4966599;28;20755;-63
2024/01/03 12:19:22;;;;;;;3.50;0.90;;;14.20;58.30;;;;;;4963879;28;20853;-64
2024/01/03 12:21:59;;;;;;;2.20;1.27;;;14.40;58.40;;;;;;4967298;28;20981;-63
2024/01/03 12:24:41;;;;;;;1.20;1.10;;;14.60;58.00;;;;;;4966476;28;20490;-64
2024/01/03 12:27:08;;;;;;;2.30;1.30;;;14.50;58.00;;;;;;4957234;28;20482;-63
2024/01/03 12:29:34;;;;;;;1.23;0.80;;;14.70;58.00;;;;;;4962215;28;20469;-63
2024/01/03 12:32:14;;;;;;;1.83;0.97;;;14.60;58.00;;;;;;4963608;28;20482;-64
2024/01/03 12:34:40;;;;;;;2.60;0.90;;;14.70;58.20;;;;;;4966671;28;20481;-64
2024/01/03 12:37:05;;;;;;;2.37;1.03;;;15.10;58.20;;;;;;4963363;28;20520;-63
2024/01/03 12:39:35;;;;;;;3.57;1.03;;;15.00;57.80;;;;;;4962440;28;20222;-63
2024/01/03 12:42:04;;;;;;;1.43;0.93;;;14.70;57.60;;;;;;4958849;28;20187;-64
2024/01/03 12:44:34;;;;;;;2.30;0.90;;;14.60;58.50;;;;;;4964495;28;20508;-62
2024/01/03 12:46:59;;;;;;;3.00;1.20;;;14.70;58.50;;;;;;4955625;28;20459;-63